Time,TemperatureF,DewpointF,PressureIn,WindDirection,WindDirectionDegrees,WindSpeedMPH,WindSpeedGustMPH,Humidity,HourlyPrecipIn,Conditions,Clouds,dailyrainin,SoftwareType,DateUTC
2013-06-30 00:01:00,60.6,56.4,29.71,SSE,157,0.0,1.1,86,0.00,,,0.23,WUHU21623XXSP,2013-06-30 04:01:00,
2013-06-30 00:06:00,60.8,56.6,29.71,SE,125,1.1,1.6,86,0.00,,,0.00,WUHU21623XXSP,2013-06-30 04:06:00,
2013-06-30 00:11:00,61.0,56.8,29.71,South,180,1.5,2.5,86,0.02,,,0.02,WUHU21623XXSP,2013-06-30 04:11:00,
2013-06-30 00:16:00,61.0,56.8,29.71,South,180,0.0,4.9,86,0.02,,,0.02,WUHU21623XXSP,2013-06-30 04:16:00,
2013-06-30 00:21:00,61.1,56.9,29.71,SSE,157,1.2,4.9,86,0.02,,,0.02,WUHU21623XXSP,2013-06-30 04:21:00,
2013-06-30 00:26:00,61.1,56.9,29.71,SE,135,0.2,2.9,86,0.02,,,0.02,WUHU21623XXSP,2013-06-30 04:26:00,
2013-06-30 00:31:00,61.0,56.8,29.71,SSW,202,0.0,2.9,86,0.02,,,0.02,WUHU21623XXSP,2013-06-30 04:31:00,
2013-06-30 00:36:00,61.1,56.9,29.71,SSE,157,0.0,1.1,86,0.02,,,0.02,WUHU21623XXSP,2013-06-30 04:36:00,
2013-06-30 00:41:00,61.1,56.9,29.71,SSE,157,0.0,1.1,86,0.02,,,0.02,WUHU21623XXSP,2013-06-30 04:41:00,
2013-06-30 00:46:00,61.1,56.9,29.71,SSE,157,0.0,0.0,86,0.02,,,0.02,WUHU21623XXSP,2013-06-30 04:46:00,
2013-06-30 00:51:00,61.1,56.9,29.71,SSE,157,0.0,0.0,86,0.02,,,0.02,WUHU21623XXSP,2013-06-30 04:51:00,
2013-06-30 00:56:00,61.1,56.9,29.72,SE,135,1.5,2.0,86,0.02,,,0.02,WUHU21623XXSP,2013-06-30 04:56:00,
2013-06-30 01:01:00,61.1,56.9,29.72,SSE,157,0.0,2.0,86,0.02,,,0.02,WUHU21623XXSP,2013-06-30 05:01:00,
2013-06-30 01:06:00,61.3,57.1,29.72,SSE,157,0.0,0.0,86,0.02,,,0.02,WUHU21623XXSP,2013-06-30 05:06:00,
2013-06-30 01:11:00,61.3,57.1,29.72,SSE,157,0.0,0.0,86,0.00,,,0.02,WUHU21623XXSP,2013-06-30 05:11:00,
2013-06-30 01:16:00,61.3,57.1,29.72,SSE,157,0.0,0.0,86,0.00,,,0.02,WUHU21623XXSP,2013-06-30 05:16:00,
2013-06-30 01:21:00,61.3,57.1,29.72,SSE,157,0.0,0.0,86,0.00,,,0.02,WUHU21623XXSP,2013-06-30 05:21:00,
2013-06-30 01:26:00,61.3,57.1,29.72,SSE,157,0.0,0.0,86,0.00,,,0.02,WUHU21623XXSP,2013-06-30 05:26:00,
2013-06-30 01:31:00,61.1,56.9,29.73,SSE,157,0.0,0.0,86,0.00,,,0.02,WUHU21623XXSP,2013-06-30 05:31:00,
2013-06-30 01:36:00,61.1,56.9,29.72,SSE,157,0.0,0.0,86,0.00,,,0.02,WUHU21623XXSP,2013-06-30 05:36:00,
2013-06-30 01:41:00,61.1,56.9,29.73,SSW,202,0.0,0.7,86,0.00,,,0.02,WUHU21623XXSP,2013-06-30 05:41:00,
2013-06-30 01:46:00,61.1,56.9,29.73,SSW,202,1.1,1.1,86,0.00,,,0.02,WUHU21623XXSP,2013-06-30 05:46:00,
2013-06-30 01:51:00,61.1,56.9,29.73,SSW,202,0.0,1.1,86,0.00,,,0.02,WUHU21623XXSP,2013-06-30 05:51:00,
2013-06-30 01:56:00,61.3,57.1,29.73,SSE,157,0.0,3.8,86,0.00,,,0.02,WUHU21623XXSP,2013-06-30 05:56:00,
2013-06-30 02:01:00,61.3,57.1,29.73,SSE,157,0.0,3.8,86,0.00,,,0.02,WUHU21623XXSP,2013-06-30 06:01:00,
2013-06-30 02:06:00,61.3,57.1,29.73,SSE,157,0.0,0.0,86,0.00,,,0.02,WUHU21623XXSP,2013-06-30 06:06:00,
2013-06-30 02:11:00,61.1,56.9,29.73,SSE,157,0.0,0.0,86,0.00,,,0.02,WUHU21623XXSP,2013-06-30 06:11:00,
2013-06-30 02:16:00,61.0,56.8,29.73,SSE,157,0.0,0.0,86,0.00,,,0.02,WUHU21623XXSP,2013-06-30 06:16:00,
2013-06-30 02:21:00,60.8,56.6,29.73,SSE,157,0.0,0.0,86,0.00,,,0.02,WUHU21623XXSP,2013-06-30 06:21:00,
2013-06-30 02:26:00,60.4,56.5,29.73,SSE,157,0.0,0.0,87,0.00,,,0.02,WUHU21623XXSP,2013-06-30 06:26:00,
2013-06-30 02:31:00,60.2,56.0,29.73,SSE,157,0.0,0.0,86,0.00,,,0.02,WUHU21623XXSP,2013-06-30 06:31:00,
2013-06-30 02:36:00,60.2,56.0,29.73,SSE,157,0.0,2.0,86,0.00,,,0.02,WUHU21623XXSP,2013-06-30 06:36:00,
2013-06-30 02:41:00,59.9,56.0,29.73,SSE,157,1.1,2.0,87,0.00,,,0.02,WUHU21623XXSP,2013-06-30 06:41:00,
2013-06-30 02:46:00,59.9,56.0,29.73,ENE,67,0.0,1.3,87,0.00,,,0.02,WUHU21623XXSP,2013-06-30 06:46:00,
2013-06-30 02:51:00,59.9,56.0,29.73,ENE,67,0.0,0.0,87,0.00,,,0.02,WUHU21623XXSP,2013-06-30 06:51:00,
2013-06-30 02:56:00,59.7,55.8,29.73,ENE,67,0.0,0.0,87,0.00,,,0.02,WUHU21623XXSP,2013-06-30 06:56:00,
2013-06-30 03:01:00,59.5,55.6,29.73,ENE,67,0.0,0.0,87,0.00,,,0.02,WUHU21623XXSP,2013-06-30 07:01:00,
2013-06-30 03:06:00,59.5,55.6,29.73,SE,135,0.0,0.0,87,0.00,,,0.02,WUHU21623XXSP,2013-06-30 07:06:00,
2013-06-30 03:11:00,59.3,55.4,29.73,SE,135,0.0,0.0,87,0.00,,,0.02,WUHU21623XXSP,2013-06-30 07:11:00,
2013-06-30 03:16:00,59.3,55.4,29.73,South,180,0.0,3.1,87,0.00,,,0.02,WUHU21623XXSP,2013-06-30 07:16:00,
2013-06-30 03:21:00,59.5,55.6,29.73,SSE,157,0.0,3.1,87,0.00,,,0.02,WUHU21623XXSP,2013-06-30 07:21:00,
2013-06-30 03:26:00,59.5,55.6,29.72,SSE,157,0.2,0.2,87,0.00,,,0.02,WUHU21623XXSP,2013-06-30 07:26:00,
2013-06-30 03:31:00,59.5,55.6,29.72,SSE,157,0.0,4.3,87,0.00,,,0.02,WUHU21623XXSP,2013-06-30 07:31:00,
2013-06-30 03:36:00,59.5,55.6,29.72,SSE,157,3.1,4.3,87,0.00,,,0.02,WUHU21623XXSP,2013-06-30 07:36:00,
2013-06-30 03:41:00,59.5,55.6,29.72,SSE,157,0.0,3.1,87,0.00,,,0.02,WUHU21623XXSP,2013-06-30 07:41:00,
2013-06-30 03:46:00,59.5,55.6,29.72,SSE,157,0.7,1.8,87,0.00,,,0.02,WUHU21623XXSP,2013-06-30 07:46:00,
2013-06-30 03:51:00,59.5,55.6,29.73,SSE,157,0.9,1.8,87,0.00,,,0.02,WUHU21623XXSP,2013-06-30 07:51:00,
2013-06-30 03:56:00,59.5,55.6,29.73,SSE,157,0.0,1.3,87,0.00,,,0.02,WUHU21623XXSP,2013-06-30 07:56:00,
2013-06-30 04:01:00,59.5,55.6,29.73,SSE,157,0.0,0.0,87,0.00,,,0.02,WUHU21623XXSP,2013-06-30 08:01:00,
2013-06-30 04:06:00,59.5,55.6,29.73,SSE,159,2.5,5.1,87,0.00,,,0.02,WUHU21623XXSP,2013-06-30 08:06:00,
2013-06-30 04:11:00,59.5,55.6,29.74,South,180,2.9,5.1,87,0.00,,,0.02,WUHU21623XXSP,2013-06-30 08:11:00,
2013-06-30 04:16:00,59.5,55.6,29.74,SSE,163,1.7,4.0,87,0.00,,,0.02,WUHU21623XXSP,2013-06-30 08:16:00,
2013-06-30 04:21:00,59.5,55.6,29.73,SE,135,1.4,4.0,87,0.00,,,0.02,WUHU21623XXSP,2013-06-30 08:21:00,
2013-06-30 04:26:00,59.7,56.1,29.74,East,90,0.0,4.3,88,0.00,,,0.02,WUHU21623XXSP,2013-06-30 08:26:00,
2013-06-30 04:31:00,59.7,56.1,29.73,ESE,112,0.0,4.3,88,0.00,,,0.02,WUHU21623XXSP,2013-06-30 08:31:00,
2013-06-30 04:36:00,59.7,56.1,29.74,East,90,0.0,1.8,88,0.00,,,0.02,WUHU21623XXSP,2013-06-30 08:36:00,
2013-06-30 04:41:00,59.5,55.9,29.74,ENE,67,0.0,0.0,88,0.00,,,0.02,WUHU21623XXSP,2013-06-30 08:41:00,
2013-06-30 04:46:00,59.5,55.9,29.74,East,90,0.0,0.0,88,0.00,,,0.02,WUHU21623XXSP,2013-06-30 08:46:00,
2013-06-30 04:51:00,59.5,55.9,29.74,NE,45,0.0,1.8,88,0.00,,,0.02,WUHU21623XXSP,2013-06-30 08:51:00,
2013-06-30 04:56:00,59.5,55.9,29.74,ENE,67,0.0,1.8,88,0.00,,,0.02,WUHU21623XXSP,2013-06-30 08:56:00,
2013-06-30 05:01:00,59.5,55.9,29.74,ENE,67,0.0,0.0,88,0.00,,,0.02,WUHU21623XXSP,2013-06-30 09:01:00,
2013-06-30 05:06:00,59.3,55.7,29.74,ENE,67,0.0,0.0,88,0.00,,,0.02,WUHU21623XXSP,2013-06-30 09:06:00,
2013-06-30 05:11:00,59.3,55.7,29.75,ENE,67,0.0,0.0,88,0.00,,,0.02,WUHU21623XXSP,2013-06-30 09:11:00,
2013-06-30 05:16:00,59.0,55.1,29.75,East,90,0.0,0.0,87,0.00,,,0.02,WUHU21623XXSP,2013-06-30 09:16:00,
2013-06-30 05:21:00,59.0,55.1,29.75,East,90,0.0,0.0,87,0.00,,,0.02,WUHU21623XXSP,2013-06-30 09:21:00,
2013-06-30 05:26:00,59.0,55.1,29.75,East,90,0.0,0.0,87,0.00,,,0.02,WUHU21623XXSP,2013-06-30 09:26:00,
2013-06-30 05:31:00,58.6,54.7,29.75,East,90,0.0,0.0,87,0.00,,,0.02,WUHU21623XXSP,2013-06-30 09:31:00,
2013-06-30 05:36:00,58.8,54.9,29.75,East,90,0.0,0.0,87,0.00,,,0.02,WUHU21623XXSP,2013-06-30 09:36:00,
2013-06-30 05:41:00,58.8,54.9,29.76,East,90,0.0,0.0,87,0.00,,,0.02,WUHU21623XXSP,2013-06-30 09:41:00,
2013-06-30 05:46:00,59.0,55.1,29.75,East,90,0.0,0.0,87,0.00,,,0.02,WUHU21623XXSP,2013-06-30 09:46:00,
2013-06-30 05:51:00,59.0,55.1,29.76,East,90,0.0,0.0,87,0.00,,,0.02,WUHU21623XXSP,2013-06-30 09:51:00,
2013-06-30 05:56:00,58.6,54.7,29.76,East,90,0.0,0.0,87,0.00,,,0.02,WUHU21623XXSP,2013-06-30 09:56:00,
2013-06-30 06:01:00,58.8,54.9,29.77,East,90,0.0,0.0,87,0.00,,,0.02,WUHU21623XXSP,2013-06-30 10:01:00,
2013-06-30 06:06:00,58.8,54.9,29.77,East,90,0.0,0.0,87,0.00,,,0.02,WUHU21623XXSP,2013-06-30 10:06:00,
2013-06-30 06:11:00,59.0,55.1,29.77,East,90,0.0,0.0,87,0.00,,,0.02,WUHU21623XXSP,2013-06-30 10:11:00,
2013-06-30 06:16:00,59.0,55.1,29.77,East,90,0.0,0.0,87,0.00,,,0.02,WUHU21623XXSP,2013-06-30 10:16:00,
2013-06-30 06:21:00,59.0,55.1,29.77,East,90,0.0,0.0,87,0.00,,,0.02,WUHU21623XXSP,2013-06-30 10:21:00,
2013-06-30 06:26:00,59.0,55.1,29.77,East,90,0.0,0.0,87,0.00,,,0.02,WUHU21623XXSP,2013-06-30 10:26:00,
2013-06-30 06:31:00,59.2,55.3,29.77,East,90,0.0,0.0,87,0.00,,,0.02,WUHU21623XXSP,2013-06-30 10:31:00,
2013-06-30 06:36:00,59.0,55.1,29.78,East,90,0.0,0.0,87,0.00,,,0.02,WUHU21623XXSP,2013-06-30 10:36:00,
2013-06-30 06:41:00,59.2,55.3,29.78,East,90,0.0,0.0,87,0.00,,,0.02,WUHU21623XXSP,2013-06-30 10:41:00,
2013-06-30 06:46:00,59.3,55.7,29.78,East,90,0.0,0.0,88,0.00,,,0.02,WUHU21623XXSP,2013-06-30 10:46:00,
2013-06-30 06:51:00,59.3,55.7,29.78,East,90,0.0,0.0,88,0.00,,,0.02,WUHU21623XXSP,2013-06-30 10:51:00,
2013-06-30 06:56:00,59.5,55.9,29.78,East,90,0.0,0.0,88,0.00,,,0.02,WUHU21623XXSP,2013-06-30 10:56:00,
2013-06-30 07:01:00,59.7,56.1,29.79,East,90,0.0,0.0,88,0.00,,,0.02,WUHU21623XXSP,2013-06-30 11:01:00,
2013-06-30 07:06:00,59.9,56.3,29.79,East,90,0.0,0.0,88,0.00,,,0.02,WUHU21623XXSP,2013-06-30 11:06:00,
2013-06-30 07:11:00,60.2,56.6,29.79,East,90,0.0,0.0,88,0.00,,,0.02,WUHU21623XXSP,2013-06-30 11:11:00,
2013-06-30 07:16:00,60.4,56.8,29.79,East,90,0.0,0.0,88,0.00,,,0.02,WUHU21623XXSP,2013-06-30 11:16:00,
2013-06-30 07:21:00,60.4,56.8,29.79,East,90,0.0,0.0,88,0.00,,,0.02,WUHU21623XXSP,2013-06-30 11:21:00,
2013-06-30 07:26:00,60.8,57.2,29.80,East,90,0.0,0.0,88,0.00,,,0.02,WUHU21623XXSP,2013-06-30 11:26:00,
2013-06-30 07:31:00,61.1,57.5,29.79,East,90,0.0,0.0,88,0.00,,,0.02,WUHU21623XXSP,2013-06-30 11:31:00,
2013-06-30 07:36:00,61.1,57.5,29.80,East,90,0.0,0.0,88,0.00,,,0.02,WUHU21623XXSP,2013-06-30 11:36:00,
2013-06-30 07:41:00,61.3,57.7,29.80,East,90,0.0,0.0,88,0.00,,,0.02,WUHU21623XXSP,2013-06-30 11:41:00,
2013-06-30 07:46:00,61.7,58.1,29.80,East,90,0.0,0.0,88,0.00,,,0.02,WUHU21623XXSP,2013-06-30 11:46:00,
2013-06-30 07:51:00,62.0,58.4,29.80,SE,135,0.0,0.0,88,0.00,,,0.02,WUHU21623XXSP,2013-06-30 11:51:00,
2013-06-30 07:56:00,62.2,58.6,29.80,SE,135,0.0,0.0,88,0.00,,,0.02,WUHU21623XXSP,2013-06-30 11:56:00,
2013-06-30 08:01:00,62.4,58.8,29.80,SE,135,0.0,0.0,88,0.00,,,0.02,WUHU21623XXSP,2013-06-30 12:01:00,
2013-06-30 08:06:00,62.6,59.0,29.80,ESE,112,0.0,0.0,88,0.00,,,0.02,WUHU21623XXSP,2013-06-30 12:06:00,
2013-06-30 08:11:00,62.9,59.3,29.80,SE,135,0.0,0.0,88,0.00,,,0.02,WUHU21623XXSP,2013-06-30 12:11:00,
2013-06-30 08:16:00,63.3,59.7,29.80,SE,135,0.0,0.0,88,0.00,,,0.02,WUHU21623XXSP,2013-06-30 12:16:00,
2013-06-30 08:21:00,63.8,60.2,29.81,SE,135,0.0,0.0,88,0.00,,,0.02,WUHU21623XXSP,2013-06-30 12:21:00,
2013-06-30 08:26:00,64.2,60.6,29.80,SE,135,0.0,0.0,88,0.00,,,0.02,WUHU21623XXSP,2013-06-30 12:26:00,
2013-06-30 08:31:00,64.6,61.0,29.80,SE,135,0.0,0.0,88,0.00,,,0.02,WUHU21623XXSP,2013-06-30 12:31:00,
2013-06-30 08:36:00,64.9,61.3,29.80,ESE,112,0.0,0.0,88,0.00,,,0.02,WUHU21623XXSP,2013-06-30 12:36:00,
2013-06-30 08:41:00,65.6,61.9,29.80,ESE,112,0.0,0.0,88,0.00,,,0.02,WUHU21623XXSP,2013-06-30 12:41:00,
2013-06-30 08:46:00,66.2,62.5,29.80,ESE,112,0.0,0.0,88,0.00,,,0.02,WUHU21623XXSP,2013-06-30 12:46:00,
2013-06-30 08:51:00,66.7,62.7,29.81,North,0,0.0,0.0,87,0.00,,,0.02,WUHU21623XXSP,2013-06-30 12:51:00,
2013-06-30 08:56:00,67.1,62.8,29.81,North,0,0.0,0.0,86,0.00,,,0.02,WUHU21623XXSP,2013-06-30 12:56:00,
2013-06-30 09:01:00,67.1,62.5,29.81,North,0,0.0,0.0,85,0.00,,,0.02,WUHU21623XXSP,2013-06-30 13:01:00,
2013-06-30 09:06:00,67.6,63.0,29.82,NE,45,0.0,0.0,85,0.00,,,0.02,WUHU21623XXSP,2013-06-30 13:06:00,
2013-06-30 09:11:00,68.3,63.3,29.82,NE,45,0.0,0.0,84,0.00,,,0.02,WUHU21623XXSP,2013-06-30 13:11:00,
2013-06-30 09:16:00,68.9,63.6,29.82,NE,45,0.0,0.0,83,0.00,,,0.02,WUHU21623XXSP,2013-06-30 13:16:00,
2013-06-30 09:21:00,69.4,63.7,29.82,NW,315,0.0,0.0,82,0.00,,,0.02,WUHU21623XXSP,2013-06-30 13:21:00,
2013-06-30 09:26:00,69.4,63.4,29.82,NW,315,0.0,0.0,81,0.00,,,0.02,WUHU21623XXSP,2013-06-30 13:26:00,
2013-06-30 09:31:00,70.0,64.0,29.82,SE,135,0.0,0.0,81,0.00,,,0.02,WUHU21623XXSP,2013-06-30 13:31:00,
2013-06-30 09:36:00,70.9,64.5,29.82,East,90,0.0,0.0,80,0.00,,,0.02,WUHU21623XXSP,2013-06-30 13:36:00,
2013-06-30 09:41:00,71.8,64.7,29.82,ENE,67,0.0,0.0,78,0.00,,,0.02,WUHU21623XXSP,2013-06-30 13:41:00,
2013-06-30 09:46:00,71.8,64.3,29.82,ENE,67,0.0,0.0,77,0.00,,,0.02,WUHU21623XXSP,2013-06-30 13:46:00,
2013-06-30 09:51:00,71.9,64.1,29.82,ENE,67,0.0,0.0,76,0.00,,,0.02,WUHU21623XXSP,2013-06-30 13:51:00,
2013-06-30 09:56:00,72.1,64.3,29.82,ENE,67,0.0,0.0,76,0.00,,,0.02,WUHU21623XXSP,2013-06-30 13:56:00,
2013-06-30 10:01:00,72.5,64.3,29.82,ENE,67,0.0,0.0,75,0.00,,,0.02,WUHU21623XXSP,2013-06-30 14:01:00,
2013-06-30 10:06:00,73.0,64.8,29.82,SSE,157,0.0,0.0,75,0.00,,,0.02,WUHU21623XXSP,2013-06-30 14:06:00,
2013-06-30 10:11:00,73.6,64.6,29.82,SSE,157,0.0,0.0,73,0.00,,,0.02,WUHU21623XXSP,2013-06-30 14:11:00,
2013-06-30 10:16:00,73.9,64.9,29.82,SSE,157,0.0,0.0,73,0.00,,,0.02,WUHU21623XXSP,2013-06-30 14:16:00,
2013-06-30 10:21:00,74.3,64.9,29.83,ESE,112,0.0,0.0,72,0.00,,,0.02,WUHU21623XXSP,2013-06-30 14:21:00,
2013-06-30 10:26:00,74.6,65.5,29.82,SW,225,0.0,0.0,73,0.00,,,0.02,WUHU21623XXSP,2013-06-30 14:26:00,
2013-06-30 10:31:00,74.8,65.0,29.83,SW,225,0.0,0.0,71,0.00,,,0.02,WUHU21623XXSP,2013-06-30 14:31:00,
2013-06-30 10:36:00,74.8,65.0,29.82,SW,225,0.0,0.0,71,0.00,,,0.02,WUHU21623XXSP,2013-06-30 14:36:00,
2013-06-30 10:41:00,75.0,64.8,29.82,NNE,22,0.0,0.0,70,0.00,,,0.02,WUHU21623XXSP,2013-06-30 14:41:00,
2013-06-30 10:46:00,75.4,65.1,29.82,West,270,0.0,0.0,70,0.00,,,0.02,WUHU21623XXSP,2013-06-30 14:46:00,
2013-06-30 10:51:00,75.7,65.4,29.82,WNW,292,0.0,0.0,70,0.00,,,0.02,WUHU21623XXSP,2013-06-30 14:51:00,
2013-06-30 10:56:00,75.7,65.0,29.82,NNE,22,0.0,0.0,69,0.00,,,0.02,WUHU21623XXSP,2013-06-30 14:56:00,
2013-06-30 11:01:00,75.7,65.4,29.82,ENE,67,0.0,0.0,70,0.00,,,0.02,WUHU21623XXSP,2013-06-30 15:01:00,
2013-06-30 11:06:00,75.9,65.2,29.82,NE,45,0.0,0.0,69,0.00,,,0.02,WUHU21623XXSP,2013-06-30 15:06:00,
2013-06-30 11:11:00,76.1,65.4,29.82,SW,225,0.0,0.0,69,0.00,,,0.02,WUHU21623XXSP,2013-06-30 15:11:00,
2013-06-30 11:16:00,76.1,65.4,29.83,WSW,247,0.0,0.0,69,0.00,,,0.02,WUHU21623XXSP,2013-06-30 15:16:00,
2013-06-30 11:21:00,76.6,65.9,29.83,NW,315,0.0,0.0,69,0.00,,,0.02,WUHU21623XXSP,2013-06-30 15:21:00,
2013-06-30 11:26:00,77.0,65.8,29.83,NNW,337,0.0,0.0,68,0.00,,,0.02,WUHU21623XXSP,2013-06-30 15:26:00,
2013-06-30 11:31:00,76.3,65.2,29.83,WSW,247,0.0,0.0,68,0.00,,,0.02,WUHU21623XXSP,2013-06-30 15:31:00,
2013-06-30 11:36:00,76.1,65.8,29.83,West,270,0.0,0.0,70,0.00,,,0.02,WUHU21623XXSP,2013-06-30 15:36:00,
2013-06-30 11:41:00,76.6,66.3,29.83,SW,225,0.0,2.0,70,0.00,,,0.02,WUHU21623XXSP,2013-06-30 15:41:00,
2013-06-30 11:46:00,77.0,66.3,29.83,NNW,337,0.0,2.5,69,0.00,,,0.02,WUHU21623XXSP,2013-06-30 15:46:00,
2013-06-30 11:51:00,77.0,65.4,29.83,NNE,22,0.0,2.5,67,0.00,,,0.02,WUHU21623XXSP,2013-06-30 15:51:00,
2013-06-30 11:56:00,77.3,66.1,29.83,SW,225,0.0,0.0,68,0.00,,,0.02,WUHU21623XXSP,2013-06-30 15:56:00,
2013-06-30 12:01:00,77.5,65.9,29.83,ENE,67,0.0,0.0,67,0.00,,,0.02,WUHU21623XXSP,2013-06-30 16:01:00,
2013-06-30 12:06:00,77.7,65.7,29.83,NE,45,0.0,0.9,66,0.00,,,0.02,WUHU21623XXSP,2013-06-30 16:06:00,
2013-06-30 12:11:00,77.9,65.9,29.83,NE,45,0.0,0.9,66,0.00,,,0.02,WUHU21623XXSP,2013-06-30 16:11:00,
2013-06-30 12:16:00,78.2,65.7,29.83,SSW,202,0.0,0.0,65,0.00,,,0.02,WUHU21623XXSP,2013-06-30 16:16:00,
2013-06-30 12:21:00,77.9,65.0,29.83,WSW,247,0.0,0.0,64,0.00,,,0.02,WUHU21623XXSP,2013-06-30 16:21:00,
2013-06-30 12:26:00,77.3,65.3,29.83,WSW,247,0.0,0.0,66,0.00,,,0.02,WUHU21623XXSP,2013-06-30 16:26:00,
2013-06-30 12:31:00,77.7,64.8,29.83,WSW,247,0.0,0.0,64,0.00,,,0.02,WUHU21623XXSP,2013-06-30 16:31:00,
2013-06-30 12:36:00,78.2,65.7,29.83,NNE,22,0.7,0.7,65,0.00,,,0.02,WUHU21623XXSP,2013-06-30 16:36:00,
2013-06-30 12:41:00,78.8,66.3,29.83,SSE,157,1.3,1.3,65,0.00,,,0.02,WUHU21623XXSP,2013-06-30 16:41:00,
2013-06-30 12:46:00,79.3,66.8,29.83,NE,45,0.0,1.3,65,0.00,,,0.02,WUHU21623XXSP,2013-06-30 16:46:00,
2013-06-30 12:51:00,80.0,67.0,29.82,SSW,202,2.7,2.9,64,0.00,,,0.02,WUHU21623XXSP,2013-06-30 16:51:00,
2013-06-30 12:57:00,80.4,66.9,29.82,SSW,195,0.6,2.9,63,0.00,,,0.02,WUHU21623XXSP,2013-06-30 16:57:00,
2013-06-30 13:02:00,80.4,66.4,29.83,NNE,22,0.0,0.9,62,0.00,,,0.02,WUHU21623XXSP,2013-06-30 17:02:00,
2013-06-30 13:07:00,80.2,66.2,29.83,NNE,22,0.0,0.0,62,0.00,,,0.02,WUHU21623XXSP,2013-06-30 17:07:00,
2013-06-30 13:12:00,80.2,66.7,29.83,South,180,3.4,3.4,63,0.00,,,0.02,WUHU21623XXSP,2013-06-30 17:12:00,
2013-06-30 13:17:00,80.0,66.5,29.83,WSW,247,0.4,3.4,63,0.00,,,0.02,WUHU21623XXSP,2013-06-30 17:17:00,
2013-06-30 13:22:00,80.2,66.2,29.83,NNE,22,0.0,0.7,62,0.00,,,0.02,WUHU21623XXSP,2013-06-30 17:22:00,
2013-06-30 13:27:00,80.0,66.1,29.82,North,0,0.0,0.0,62,0.00,,,0.02,WUHU21623XXSP,2013-06-30 17:27:00,
2013-06-30 13:32:00,79.9,66.4,29.83,NNE,22,1.9,3.8,63,0.00,,,0.02,WUHU21623XXSP,2013-06-30 17:32:00,
2013-06-30 13:37:00,79.5,66.0,29.83,ESE,116,1.2,3.8,63,0.00,,,0.02,WUHU21623XXSP,2013-06-30 17:37:00,
2013-06-30 13:42:00,79.9,66.4,29.83,SW,225,1.6,2.0,63,0.00,,,0.02,WUHU21623XXSP,2013-06-30 17:42:00,
2013-06-30 13:47:00,80.0,66.5,29.83,North,0,0.0,1.6,63,0.00,,,0.02,WUHU21623XXSP,2013-06-30 17:47:00,
2013-06-30 13:52:00,80.2,66.2,29.83,NNE,19,2.2,4.9,62,0.00,,,0.02,WUHU21623XXSP,2013-06-30 17:52:00,
2013-06-30 13:57:00,80.0,66.1,29.83,NE,45,0.0,4.9,62,0.00,,,0.02,WUHU21623XXSP,2013-06-30 17:57:00,
2013-06-30 14:02:00,80.6,67.1,29.83,SW,225,0.0,0.0,63,0.00,,,0.02,WUHU21623XXSP,2013-06-30 18:02:00,
2013-06-30 14:07:00,81.1,67.6,29.83,SSW,202,2.7,2.7,63,0.00,,,0.02,WUHU21623XXSP,2013-06-30 18:07:00,
2013-06-30 14:12:00,81.7,67.2,29.83,NNE,22,2.0,3.8,61,0.00,,,0.02,WUHU21623XXSP,2013-06-30 18:12:00,
2013-06-30 14:17:00,81.5,66.0,29.83,ESE,112,0.9,3.8,59,0.00,,,0.02,WUHU21623XXSP,2013-06-30 18:17:00,
2013-06-30 14:22:00,81.1,66.1,29.83,NNE,22,1.7,2.7,60,0.00,,,0.02,WUHU21623XXSP,2013-06-30 18:22:00,
2013-06-30 14:27:00,80.9,66.0,29.83,SSW,203,1.5,3.4,60,0.00,,,0.02,WUHU21623XXSP,2013-06-30 18:27:00,
2013-06-30 14:32:00,80.8,66.3,29.83,North,0,0.0,3.4,61,0.00,,,0.02,WUHU21623XXSP,2013-06-30 18:32:00,
2013-06-30 14:37:00,80.4,65.5,29.83,NNE,22,0.0,2.7,60,0.00,,,0.02,WUHU21623XXSP,2013-06-30 18:37:00,
2013-06-30 14:42:00,80.2,65.8,29.83,NE,45,0.0,2.5,61,0.00,,,0.02,WUHU21623XXSP,2013-06-30 18:42:00,
2013-06-30 14:47:00,80.2,65.3,29.83,NNE,22,0.0,2.7,60,0.02,,,0.04,WUHU21623XXSP,2013-06-30 18:47:00,
2013-06-30 14:52:00,80.0,64.6,29.82,NNE,22,0.0,2.7,59,0.02,,,0.04,WUHU21623XXSP,2013-06-30 18:52:00,
2013-06-30 14:57:00,80.0,64.6,29.82,NNE,22,1.1,1.1,59,0.02,,,0.04,WUHU21623XXSP,2013-06-30 18:57:00,
2013-06-30 15:02:00,79.5,64.6,29.82,North,0,0.0,1.1,60,0.02,,,0.04,WUHU21623XXSP,2013-06-30 19:02:00,
2013-06-30 15:07:00,79.5,64.6,29.83,NNE,22,2.7,4.3,60,0.02,,,0.04,WUHU21623XXSP,2013-06-30 19:07:00,
2013-06-30 15:12:00,79.3,64.4,29.82,North,0,0.0,4.3,60,0.02,,,0.04,WUHU21623XXSP,2013-06-30 19:12:00,
2013-06-30 15:17:00,79.3,64.4,29.83,ENE,67,1.3,2.9,60,0.02,,,0.04,WUHU21623XXSP,2013-06-30 19:17:00,
2013-06-30 15:22:00,79.3,64.4,29.83,NW,315,0.0,2.9,60,0.02,,,0.04,WUHU21623XXSP,2013-06-30 19:22:00,
2013-06-30 15:28:00,79.3,64.4,29.82,NNE,22,0.9,0.9,60,0.02,,,0.04,WUHU21623XXSP,2013-06-30 19:28:00,
2013-06-30 15:33:00,79.3,64.4,29.82,NNE,22,0.0,0.9,60,0.02,,,0.04,WUHU21623XXSP,2013-06-30 19:33:00,
2013-06-30 15:38:00,79.3,64.4,29.83,NNE,22,0.0,0.0,60,0.02,,,0.04,WUHU21623XXSP,2013-06-30 19:38:00,
2013-06-30 15:43:00,79.3,64.0,29.83,ENE,67,0.0,0.9,59,0.02,,,0.04,WUHU21623XXSP,2013-06-30 19:43:00,
2013-06-30 15:48:00,79.5,64.6,29.82,SSW,202,0.0,0.9,60,0.00,,,0.04,WUHU21623XXSP,2013-06-30 19:48:00,
2013-06-30 15:53:00,79.7,65.3,29.82,NE,35,1.8,4.0,61,0.00,,,0.04,WUHU21623XXSP,2013-06-30 19:53:00,
2013-06-30 15:58:00,79.7,64.8,29.82,WSW,247,0.0,4.0,60,0.00,,,0.04,WUHU21623XXSP,2013-06-30 19:58:00,
2013-06-30 16:03:00,79.5,64.1,29.83,North,0,0.0,0.0,59,0.00,,,0.04,WUHU21623XXSP,2013-06-30 20:03:00,
2013-06-30 16:08:00,79.1,64.3,29.82,NE,45,0.0,0.0,60,0.00,,,0.04,WUHU21623XXSP,2013-06-30 20:08:00,
2013-06-30 16:13:00,79.1,64.3,29.83,NNE,22,0.0,0.0,60,0.00,,,0.04,WUHU21623XXSP,2013-06-30 20:13:00,
2013-06-30 16:18:00,79.1,64.3,29.83,NNE,22,1.7,1.8,60,0.00,,,0.04,WUHU21623XXSP,2013-06-30 20:18:00,
2013-06-30 16:23:00,79.1,64.3,29.83,NE,45,0.0,1.8,60,0.00,,,0.04,WUHU21623XXSP,2013-06-30 20:23:00,
2013-06-30 16:28:00,79.3,64.0,29.83,NNE,22,0.0,1.6,59,0.00,,,0.04,WUHU21623XXSP,2013-06-30 20:28:00,
2013-06-30 16:33:00,79.5,64.1,29.82,NNE,22,0.0,1.6,59,0.00,,,0.04,WUHU21623XXSP,2013-06-30 20:33:00,
2013-06-30 16:38:00,79.7,64.3,29.82,NNE,22,0.0,0.0,59,0.00,,,0.04,WUHU21623XXSP,2013-06-30 20:38:00,
2013-06-30 16:43:00,80.0,65.1,29.82,NNE,22,0.0,0.0,60,0.00,,,0.04,WUHU21623XXSP,2013-06-30 20:43:00,
2013-06-30 16:48:00,79.5,64.6,29.82,NNE,22,0.0,0.0,60,0.00,,,0.04,WUHU21623XXSP,2013-06-30 20:48:00,
2013-06-30 16:53:00,79.1,64.3,29.82,NNE,22,0.0,0.0,60,0.00,,,0.04,WUHU21623XXSP,2013-06-30 20:53:00,
2013-06-30 16:58:00,78.6,63.8,29.82,NNE,22,0.0,0.0,60,0.00,,,0.04,WUHU21623XXSP,2013-06-30 20:58:00,
2013-06-30 17:03:00,78.4,63.6,29.83,NNE,22,0.0,0.0,60,0.00,,,0.04,WUHU21623XXSP,2013-06-30 21:03:00,
2013-06-30 17:08:00,78.4,64.1,29.82,North,0,0.0,4.3,61,0.00,,,0.04,WUHU21623XXSP,2013-06-30 21:08:00,
2013-06-30 17:13:00,78.4,63.6,29.83,North,357,1.8,4.3,60,0.00,,,0.04,WUHU21623XXSP,2013-06-30 21:13:00,
2013-06-30 17:18:00,77.9,62.6,29.83,NNE,23,1.7,4.9,59,0.00,,,0.04,WUHU21623XXSP,2013-06-30 21:18:00,
2013-06-30 17:23:00,77.3,62.1,29.83,NNE,20,1.0,4.9,59,0.00,,,0.04,WUHU21623XXSP,2013-06-30 21:23:00,
2013-06-30 17:28:00,76.4,61.7,29.83,NNE,22,0.0,2.7,60,0.00,,,0.04,WUHU21623XXSP,2013-06-30 21:28:00,
2013-06-30 17:33:00,76.1,61.9,29.83,NNE,22,0.0,1.8,61,0.00,,,0.04,WUHU21623XXSP,2013-06-30 21:33:00,
2013-06-30 17:38:00,75.9,62.2,29.83,NNE,22,0.0,2.5,62,0.00,,,0.04,WUHU21623XXSP,2013-06-30 21:38:00,
2013-06-30 17:43:00,75.7,62.4,29.83,North,0,0.7,3.6,63,0.00,,,0.04,WUHU21623XXSP,2013-06-30 21:43:00,
2013-06-30 17:48:00,75.7,62.9,29.83,NNE,29,1.4,3.6,64,0.00,,,0.04,WUHU21623XXSP,2013-06-30 21:48:00,
2013-06-30 17:53:00,75.7,62.9,29.83,NNE,16,2.4,6.3,64,0.00,,,0.04,WUHU21623XXSP,2013-06-30 21:53:00,
2013-06-30 17:58:00,75.9,63.1,29.84,NNE,22,0.9,6.3,64,0.00,,,0.04,WUHU21623XXSP,2013-06-30 21:58:00,
2013-06-30 18:03:00,76.6,63.3,29.84,North,9,1.5,2.5,63,0.00,,,0.04,WUHU21623XXSP,2013-06-30 22:03:00,
2013-06-30 18:08:00,77.2,63.4,29.84,North,0,0.9,2.5,62,0.00,,,0.04,WUHU21623XXSP,2013-06-30 22:08:00,
2013-06-30 18:13:00,77.5,63.2,29.84,NNE,22,2.0,3.6,61,0.00,,,0.04,WUHU21623XXSP,2013-06-30 22:13:00,
2013-06-30 18:18:00,78.2,64.3,29.84,North,0,1.8,3.6,62,0.00,,,0.04,WUHU21623XXSP,2013-06-30 22:18:00,
2013-06-30 18:23:00,77.9,63.6,29.84,North,7,1.8,3.1,61,0.00,,,0.04,WUHU21623XXSP,2013-06-30 22:23:00,
2013-06-30 18:28:00,77.7,63.4,29.84,NNW,345,1.3,3.1,61,0.00,,,0.04,WUHU21623XXSP,2013-06-30 22:28:00,
2013-06-30 18:33:00,77.3,64.0,29.84,NNE,22,1.3,3.4,63,0.00,,,0.04,WUHU21623XXSP,2013-06-30 22:33:00,
2013-06-30 18:38:00,76.6,63.3,29.85,North,0,1.3,3.4,63,0.00,,,0.04,WUHU21623XXSP,2013-06-30 22:38:00,
2013-06-30 18:43:00,76.4,63.1,29.85,NNE,25,1.0,3.4,63,0.00,,,0.04,WUHU21623XXSP,2013-06-30 22:43:00,
2013-06-30 18:48:00,76.1,63.3,29.85,NNE,28,1.1,3.4,64,0.00,,,0.04,WUHU21623XXSP,2013-06-30 22:48:00,
2013-06-30 18:53:00,75.5,63.1,29.85,NNE,22,2.0,3.4,65,0.00,,,0.04,WUHU21623XXSP,2013-06-30 22:53:00,
2013-06-30 18:58:00,75.0,63.1,29.85,NNE,22,0.0,2.0,66,0.00,,,0.04,WUHU21623XXSP,2013-06-30 22:58:00,
2013-06-30 19:03:00,74.3,62.4,29.85,NNE,15,1.3,2.0,66,0.00,,,0.04,WUHU21623XXSP,2013-06-30 23:03:00,
2013-06-30 19:08:00,74.1,62.7,29.85,NNE,22,1.3,6.0,67,0.00,,,0.04,WUHU21623XXSP,2013-06-30 23:08:00,
2013-06-30 19:13:00,73.7,62.7,29.85,NNE,15,2.3,6.3,68,0.00,,,0.04,WUHU21623XXSP,2013-06-30 23:13:00,
2013-06-30 19:18:00,73.6,62.6,29.85,North,0,1.1,6.3,68,0.00,,,0.04,WUHU21623XXSP,2013-06-30 23:18:00,
2013-06-30 19:23:00,73.2,62.2,29.86,NNE,22,0.0,1.6,68,0.00,,,0.04,WUHU21623XXSP,2013-06-30 23:23:00,
2013-06-30 19:28:00,72.8,61.8,29.86,North,0,3.8,3.8,68,0.00,,,0.04,WUHU21623XXSP,2013-06-30 23:28:00,
2013-06-30 19:33:00,72.5,61.9,29.86,North,10,1.6,4.9,69,0.00,,,0.04,WUHU21623XXSP,2013-06-30 23:33:00,
2013-06-30 19:38:00,72.1,61.6,29.87,North,5,1.9,4.9,69,0.00,,,0.04,WUHU21623XXSP,2013-06-30 23:38:00,
2013-06-30 19:43:00,71.8,61.3,29.87,NNE,19,1.5,4.3,69,0.00,,,0.04,WUHU21623XXSP,2013-06-30 23:43:00,
2013-06-30 19:48:00,71.6,61.1,29.87,North,11,1.5,4.3,69,0.00,,,0.04,WUHU21623XXSP,2013-06-30 23:48:00,
2013-06-30 19:53:00,71.2,60.7,29.87,NNE,22,0.0,2.7,69,0.00,,,0.04,WUHU21623XXSP,2013-06-30 23:53:00,
2013-06-30 19:58:00,71.0,60.5,29.87,NNE,19,1.7,3.6,69,0.00,,,0.04,WUHU21623XXSP,2013-06-30 23:58:00,
2013-06-30 20:03:00,70.5,60.0,29.87,North,351,1.5,3.6,69,0.00,,,0.04,WUHU21623XXSP,2013-07-01 00:03:00,
2013-06-30 20:08:00,70.1,59.6,29.87,NNE,22,0.0,2.7,69,0.00,,,0.04,WUHU21623XXSP,2013-07-01 00:08:00,
2013-06-30 20:13:00,69.8,59.7,29.87,NNE,22,0.6,1.6,70,0.00,,,0.04,WUHU21623XXSP,2013-07-01 00:13:00,
2013-06-30 20:18:00,69.4,59.4,29.88,NNE,22,0.0,1.6,70,0.00,,,0.04,WUHU21623XXSP,2013-07-01 00:18:00,
2013-06-30 20:23:00,69.2,59.2,29.88,NE,45,0.0,0.4,70,0.00,,,0.04,WUHU21623XXSP,2013-07-01 00:23:00,
2013-06-30 20:28:00,68.9,58.9,29.88,ENE,67,3.1,3.1,70,0.00,,,0.04,WUHU21623XXSP,2013-07-01 00:28:00,
2013-06-30 20:33:00,68.7,58.7,29.88,NE,45,0.0,3.1,70,0.00,,,0.04,WUHU21623XXSP,2013-07-01 00:33:00,
2013-06-30 20:38:00,68.3,58.7,29.89,NE,45,0.0,0.0,71,0.00,,,0.04,WUHU21623XXSP,2013-07-01 00:38:00,
2013-06-30 20:43:00,68.2,59.0,29.89,NE,45,0.0,0.0,72,0.00,,,0.04,WUHU21623XXSP,2013-07-01 00:43:00,
2013-06-30 20:48:00,68.0,58.8,29.89,NE,45,0.0,0.0,72,0.00,,,0.04,WUHU21623XXSP,2013-07-01 00:48:00,
2013-06-30 20:53:00,68.0,58.8,29.89,NE,45,0.0,0.0,72,0.00,,,0.04,WUHU21623XXSP,2013-07-01 00:53:00,
2013-06-30 20:58:00,67.6,58.8,29.89,NE,45,0.0,0.0,73,0.00,,,0.04,WUHU21623XXSP,2013-07-01 00:58:00,
2013-06-30 21:03:00,67.6,58.8,29.89,NE,45,0.0,0.0,73,0.00,,,0.04,WUHU21623XXSP,2013-07-01 01:03:00,
2013-06-30 21:08:00,67.4,59.0,29.89,NE,45,0.0,0.0,74,0.00,,,0.04,WUHU21623XXSP,2013-07-01 01:08:00,
2013-06-30 21:13:00,67.1,58.7,29.90,NE,45,0.0,0.0,74,0.00,,,0.04,WUHU21623XXSP,2013-07-01 01:13:00,
2013-06-30 21:18:00,67.1,58.7,29.90,NE,45,0.0,0.0,74,0.00,,,0.04,WUHU21623XXSP,2013-07-01 01:18:00,
2013-06-30 21:23:00,66.9,58.5,29.90,NE,45,0.0,0.0,74,0.00,,,0.04,WUHU21623XXSP,2013-07-01 01:23:00,
2013-06-30 21:28:00,66.9,58.5,29.90,NE,45,0.0,0.0,74,0.00,,,0.04,WUHU21623XXSP,2013-07-01 01:28:00,
2013-06-30 21:33:00,66.9,58.5,29.90,NE,45,0.0,0.0,74,0.00,,,0.04,WUHU21623XXSP,2013-07-01 01:33:00,
2013-06-30 21:38:00,66.9,58.5,29.91,NE,45,0.0,0.0,74,0.00,,,0.04,WUHU21623XXSP,2013-07-01 01:38:00,
2013-06-30 21:43:00,66.9,58.5,29.92,ESE,112,0.0,0.0,74,0.00,,,0.04,WUHU21623XXSP,2013-07-01 01:43:00,
2013-06-30 21:48:00,66.7,58.3,29.92,SSE,157,1.3,1.3,74,0.00,,,0.04,WUHU21623XXSP,2013-07-01 01:48:00,
2013-06-30 21:53:00,66.7,58.6,29.92,SSE,164,2.0,8.7,75,0.00,,,0.04,WUHU21623XXSP,2013-07-01 01:53:00,
2013-06-30 21:58:00,66.5,58.5,29.92,SSE,157,0.9,8.7,75,0.00,,,0.04,WUHU21623XXSP,2013-07-01 01:58:00,
2013-06-30 22:03:00,66.4,59.1,29.92,South,180,0.0,5.4,77,0.00,,,0.04,WUHU21623XXSP,2013-07-01 02:03:00,
2013-06-30 22:08:00,65.8,58.5,29.92,SE,142,0.5,4.9,77,0.00,,,0.04,WUHU21623XXSP,2013-07-01 02:08:00,
2013-06-30 22:13:00,65.6,58.6,29.92,SSE,157,0.0,0.9,78,0.04,,,0.08,WUHU21623XXSP,2013-07-01 02:13:00,
2013-06-30 22:14:00,65.6,58.6,29.92,SSE,157,0.0,0.9,78,0.04,,,0.08,WUHU21623XXSP,2013-07-01 02:14:00,
2013-06-30 22:19:00,65.3,58.4,29.92,SSE,157,0.0,0.0,78,0.06,,,0.10,WUHU21623XXSP,2013-07-01 02:19:00,
2013-06-30 22:24:00,64.9,58.0,29.92,SSE,157,0.0,0.0,78,0.10,,,0.14,WUHU21623XXSP,2013-07-01 02:24:00,
2013-06-30 22:29:00,64.4,57.8,29.92,SSE,157,0.0,0.0,79,0.12,,,0.16,WUHU21623XXSP,2013-07-01 02:29:00,
2013-06-30 22:34:00,64.0,57.8,29.91,East,90,1.8,1.8,80,0.12,,,0.16,WUHU21623XXSP,2013-07-01 02:34:00,
2013-06-30 22:39:00,63.8,57.9,29.91,East,90,0.0,1.8,81,0.12,,,0.16,WUHU21623XXSP,2013-07-01 02:39:00,
2013-06-30 22:44:00,63.5,57.6,29.91,ENE,67,0.0,0.7,81,0.12,,,0.16,WUHU21623XXSP,2013-07-01 02:44:00,
2013-06-30 22:49:00,63.3,57.8,29.91,ENE,67,0.0,0.0,82,0.12,,,0.16,WUHU21623XXSP,2013-07-01 02:49:00,
2013-06-30 22:54:00,63.1,57.6,29.91,ENE,67,0.0,0.0,82,0.12,,,0.16,WUHU21623XXSP,2013-07-01 02:54:00,
2013-06-30 22:59:00,63.1,57.6,29.91,ENE,67,0.0,0.0,82,0.12,,,0.16,WUHU21623XXSP,2013-07-01 02:59:00,
2013-06-30 23:04:00,63.1,57.6,29.91,ENE,67,0.0,0.0,82,0.12,,,0.16,WUHU21623XXSP,2013-07-01 03:04:00,
2013-06-30 23:09:00,63.1,57.6,29.91,ENE,67,0.0,0.0,82,0.10,,,0.16,WUHU21623XXSP,2013-07-01 03:09:00,
2013-06-30 23:14:00,63.1,57.6,29.91,ESE,112,0.0,0.0,82,0.08,,,0.16,WUHU21623XXSP,2013-07-01 03:14:00,
2013-06-30 23:19:00,63.1,57.6,29.91,ESE,112,0.0,0.0,82,0.06,,,0.16,WUHU21623XXSP,2013-07-01 03:19:00,
2013-06-30 23:24:00,63.3,57.8,29.91,ESE,112,0.0,0.0,82,0.02,,,0.16,WUHU21623XXSP,2013-07-01 03:24:00,
2013-06-30 23:29:00,63.3,58.1,29.91,ESE,112,0.0,0.0,83,0.00,,,0.16,WUHU21623XXSP,2013-07-01 03:29:00,
2013-06-30 23:34:00,63.3,58.1,29.91,ESE,112,0.0,0.0,83,0.00,,,0.16,WUHU21623XXSP,2013-07-01 03:34:00,
2013-06-30 23:39:00,63.3,58.1,29.91,ESE,112,0.0,0.0,83,0.00,,,0.16,WUHU21623XXSP,2013-07-01 03:39:00,
2013-06-30 23:44:00,63.3,58.1,29.91,ESE,112,0.0,0.0,83,0.00,,,0.16,WUHU21623XXSP,2013-07-01 03:44:00,
2013-06-30 23:49:00,63.3,58.1,29.91,ESE,112,0.0,0.0,83,0.00,,,0.16,WUHU21623XXSP,2013-07-01 03:49:00,
2013-06-30 23:54:00,63.3,58.1,29.91,ESE,112,0.0,0.0,83,0.00,,,0.16,WUHU21623XXSP,2013-07-01 03:54:00,
2013-06-30 23:59:00,63.1,57.9,29.92,ESE,112,0.0,0.0,83,0.00,,,0.16,WUHU21623XXSP,2013-07-01 03:59:00,